sensor_id;sensor_type;location;lat;lon;timestamp;pressure;altitude;pressure_sealevel;temperature;humidity
4012;BME280;2020;48.682;9.024;2022-08-19T00:02:24;96050.38;;;19.58;67.44
4012;BME280;2020;48.682;9.024;2022-08-19T00:04:49;96053.06;;;19.52;67.46
4012;BME280;2020;48.682;9.024;2022-08-19T00:07:18;96040.31;;;19.49;67.91
4012;BME280;2020;48.682;9.024;2022-08-19T00:09:44;96039.09;;;19.51;67.89
4012;BME280;2020;48.682;9.024;2022-08-19T00:12:10;96043.19;;;19.47;67.86
4012;BME280;2020;48.682;9.024;2022-08-19T00:14:35;96050.09;;;19.48;67.78
4012;BME280;2020;48.682;9.024;2022-08-19T00:17:02;96048.03;;;19.50;67.55
4012;BME280;2020;48.682;9.024;2022-08-19T00:19:28;96052.41;;;19.56;67.65
4012;BME280;2020;48.682;9.024;2022-08-19T00:21:53;96052.03;;;19.53;67.58
4012;BME280;2020;48.682;9.024;2022-08-19T00:24:20;96050.09;;;19.48;68.11
4012;BME280;2020;48.682;9.024;2022-08-19T00:26:45;96046.03;;;19.46;68.26
4012;BME280;2020;48.682;9.024;2022-08-19T00:29:13;96043.06;;;19.42;68.09
4012;BME280;2020;48.682;9.024;2022-08-19T00:31:39;96038.22;;;19.39;68.26
4012;BME280;2020;48.682;9.024;2022-08-19T00:34:06;96036.38;;;19.39;68.25
4012;BME280;2020;48.682;9.024;2022-08-19T00:36:32;96029.88;;;19.42;68.11
4012;BME280;2020;48.682;9.024;2022-08-19T00:38:58;96023.44;;;19.38;68.16
4012;BME280;2020;48.682;9.024;2022-08-19T00:41:24;96015.97;;;19.35;68.69
4012;BME280;2020;48.682;9.024;2022-08-19T00:44:18;96016.53;;;19.37;68.53
4012;BME280;2020;48.682;9.024;2022-08-19T00:46:46;96020.22;;;19.36;68.33
4012;BME280;2020;48.682;9.024;2022-08-19T00:49:25;96019.38;;;19.35;68.59
4012;BME280;2020;48.682;9.024;2022-08-19T00:51:55;96022.25;;;19.34;68.81
4012;BME280;2020;48.682;9.024;2022-08-19T00:54:23;96029.59;;;19.32;68.70
4012;BME280;2020;48.682;9.024;2022-08-19T00:56:49;96029.59;;;19.32;68.74
4012;BME280;2020;48.682;9.024;2022-08-19T00:59:16;96034.88;;;19.32;68.74
4012;BME280;2020;48.682;9.024;2022-08-19T01:01:44;96037.38;;;19.26;69.47
4012;BME280;2020;48.682;9.024;2022-08-19T01:04:10;96039.41;;;19.24;69.05
4012;BME280;2020;48.682;9.024;2022-08-19T01:06:37;96034.88;;;19.32;68.69
4012;BME280;2020;48.682;9.024;2022-08-19T01:09:04;96033.84;;;19.33;68.67
4012;BME280;2020;48.682;9.024;2022-08-19T01:11:31;96038.53;;;19.31;69.01
4012;BME280;2020;48.682;9.024;2022-08-19T01:13:59;96031.19;;;19.33;68.75
4012;BME280;2020;48.682;9.024;2022-08-19T01:16:26;96027.97;;;19.31;69.20
4012;BME280;2020;48.682;9.024;2022-08-19T01:18:53;96020.66;;;19.33;69.00
4012;BME280;2020;48.682;9.024;2022-08-19T01:21:34;96026.28;;;19.36;68.82
4012;BME280;2020;48.682;9.024;2022-08-19T01:24:03;96016.97;;;19.34;68.89
4012;BME280;2020;48.682;9.024;2022-08-19T01:26:28;96025.69;;;19.34;68.84
4012;BME280;2020;48.682;9.024;2022-08-19T01:28:56;96014.66;;;19.25;68.94
4012;BME280;2020;48.682;9.024;2022-08-19T01:31:24;96010.22;;;19.19;69.40
4012;BME280;2020;48.682;9.024;2022-08-19T01:33:53;96012.72;;;19.14;69.65
4012;BME280;2020;48.682;9.024;2022-08-19T01:36:39;96018.81;;;19.14;69.77
4012;BME280;2020;48.682;9.024;2022-08-19T01:39:08;96017.22;;;19.13;70.76
4012;BME280;2020;48.682;9.024;2022-08-19T01:41:35;96017.22;;;19.13;70.13
4012;BME280;2020;48.682;9.024;2022-08-19T01:44:01;96016.25;;;19.08;70.92
4012;BME280;2020;48.682;9.024;2022-08-19T01:46:29;96016.47;;;19.06;71.35
4012;BME280;2020;48.682;9.024;2022-08-19T01:48:55;96016.84;;;19.10;71.33
4012;BME280;2020;48.682;9.024;2022-08-19T01:51:20;96018.97;;;19.01;71.95
4012;BME280;2020;48.682;9.024;2022-08-19T01:53:50;96012.88;;;19.00;71.82
4012;BME280;2020;48.682;9.024;2022-08-19T01:56:16;96008.63;;;18.99;72.46
4012;BME280;2020;48.682;9.024;2022-08-19T01:58:46;96016.94;;;18.96;72.79
4012;BME280;2020;48.682;9.024;2022-08-19T02:01:13;96025.53;;;18.92;72.87
4012;BME280;2020;48.682;9.024;2022-08-19T02:03:39;96021.06;;;18.92;73.01
4012;BME280;2020;48.682;9.024;2022-08-19T02:06:04;96024.28;;;18.94;72.47
4012;BME280;2020;48.682;9.024;2022-08-19T02:08:31;96031.97;;;18.96;72.60
4012;BME280;2020;48.682;9.024;2022-08-19T02:10:56;96028.53;;;18.95;72.62
4012;BME280;2020;48.682;9.024;2022-08-19T02:13:23;96019.41;;;18.98;72.64
4012;BME280;2020;48.682;9.024;2022-08-19T02:15:49;96014.13;;;18.98;72.60
4012;BME280;2020;48.682;9.024;2022-08-19T02:18:14;96019.00;;;18.94;72.32
4012;BME280;2020;48.682;9.024;2022-08-19T02:20:41;96016.00;;;18.91;72.33
4012;BME280;2020;48.682;9.024;2022-08-19T02:23:09;96011.38;;;18.86;72.28
4012;BME280;2020;48.682;9.024;2022-08-19T02:25:34;96014.03;;;18.86;72.16
4012;BME280;2020;48.682;9.024;2022-08-19T02:28:00;96022.38;;;18.83;72.28
4012;BME280;2020;48.682;9.024;2022-08-19T02:30:25;96016.34;;;18.76;72.69
4012;BME280;2020;48.682;9.024;2022-08-19T02:32:51;96015.78;;;18.74;72.90
4012;BME280;2020;48.682;9.024;2022-08-19T02:35:17;96019.44;;;18.73;72.62
4012;BME280;2020;48.682;9.024;2022-08-19T02:37:43;96006.25;;;18.73;73.07
4012;BME280;2020;48.682;9.024;2022-08-19T02:40:29;96007.88;;;18.74;72.84
4012;BME280;2020;48.682;9.024;2022-08-19T02:42:55;95999.38;;;18.71;73.03
4012;BME280;2020;48.682;9.024;2022-08-19T02:45:20;96008.72;;;18.67;72.88
4012;BME280;2020;48.682;9.024;2022-08-19T02:47:46;96009.16;;;18.64;73.26
4012;BME280;2020;48.682;9.024;2022-08-19T02:50:12;96008.16;;;18.65;73.25
4012;BME280;2020;48.682;9.024;2022-08-19T02:52:38;96007.13;;;18.66;73.31
4012;BME280;2020;48.682;9.024;2022-08-19T02:55:04;96007.13;;;18.66;73.20
4012;BME280;2020;48.682;9.024;2022-08-19T02:57:30;96003.91;;;18.64;73.49
4012;BME280;2020;48.682;9.024;2022-08-19T02:59:57;96015.47;;;18.63;73.46
4012;BME280;2020;48.682;9.024;2022-08-19T03:02:22;96008.81;;;18.61;73.58
4012;BME280;2020;48.682;9.024;2022-08-19T03:04:47;96007.03;;;18.54;73.80
4012;BME280;2020;48.682;9.024;2022-08-19T03:07:14;96022.63;;;18.56;73.60
4012;BME280;2020;48.682;9.024;2022-08-19T03:09:40;96018.97;;;18.57;73.78
4012;BME280;2020;48.682;9.024;2022-08-19T03:12:08;96021.03;;;18.55;73.64
4012;BME280;2020;48.682;9.024;2022-08-19T03:14:34;96010.47;;;18.55;73.92
4012;BME280;2020;48.682;9.024;2022-08-19T03:17:00;96019.13;;;18.62;73.53
4012;BME280;2020;48.682;9.024;2022-08-19T03:19:26;96019.13;;;18.62;73.47
4012;BME280;2020;48.682;9.024;2022-08-19T03:21:52;96023.00;;;18.60;73.48
4012;BME280;2020;48.682;9.024;2022-08-19T03:24:18;96025.66;;;18.60;73.34
4012;BME280;2020;48.682;9.024;2022-08-19T03:26:48;96023.44;;;18.56;73.79
4012;BME280;2020;48.682;9.024;2022-08-19T03:29:15;96011.94;;;18.51;73.84
4012;BME280;2020;48.682;9.024;2022-08-19T03:31:42;96014.13;;;18.54;73.74
4012;BME280;2020;48.682;9.024;2022-08-19T03:34:09;96009.06;;;18.52;74.21
4012;BME280;2020;48.682;9.024;2022-08-19T03:36:36;96013.81;;;18.44;74.50
4012;BME280;2020;48.682;9.024;2022-08-19T03:39:03;96017.31;;;18.37;74.70
4012;BME280;2020;48.682;9.024;2022-08-19T03:41:36;96015.28;;;18.39;74.83
4012;BME280;2020;48.682;9.024;2022-08-19T03:44:02;96013.88;;;18.37;74.64
4012;BME280;2020;48.682;9.024;2022-08-19T03:46:30;96018.34;;;18.36;74.87
4012;BME280;2020;48.682;9.024;2022-08-19T03:48:58;96009.41;;;18.37;75.01
4012;BME280;2020;48.682;9.024;2022-08-19T03:51:32;96015.13;;;18.34;74.72
4012;BME280;2020;48.682;9.024;2022-08-19T03:54:00;96013.06;;;18.36;74.74
4012;BME280;2020;48.682;9.024;2022-08-19T03:56:27;96019.56;;;18.34;75.21
4012;BME280;2020;48.682;9.024;2022-08-19T03:58:56;96029.47;;;18.38;75.01
4012;BME280;2020;48.682;9.024;2022-08-19T04:01:24;96030.09;;;18.34;74.87
4012;BME280;2020;48.682;9.024;2022-08-19T04:03:52;96041.13;;;18.24;75.35
4012;BME280;2020;48.682;9.024;2022-08-19T04:06:24;96044.38;;;18.26;75.52
4012;BME280;2020;48.682;9.024;2022-08-19T04:08:51;96046.19;;;18.25;75.64
4012;BME280;2020;48.682;9.024;2022-08-19T04:11:25;96043.94;;;18.29;75.53
4012;BME280;2020;48.682;9.024;2022-08-19T04:13:52;96038.66;;;18.29;75.48
4012;BME280;2020;48.682;9.024;2022-08-19T04:16:19;96037.75;;;18.17;75.97
4012;BME280;2020;48.682;9.024;2022-08-19T04:18:45;96028.25;;;18.16;76.26
4012;BME280;2020;48.682;9.024;2022-08-19T04:21:17;96030.28;;;18.14;76.64
4012;BME280;2020;48.682;9.024;2022-08-19T04:23:43;96029.25;;;18.15;76.21
4012;BME280;2020;48.682;9.024;2022-08-19T04:26:13;96022.97;;;18.16;76.28
4012;BME280;2020;48.682;9.024;2022-08-19T04:28:39;96029.09;;;18.09;76.57
4012;BME280;2020;48.682;9.024;2022-08-19T04:31:04;96031.72;;;18.09;76.79
4012;BME280;2020;48.682;9.024;2022-08-19T04:33:29;96027.84;;;18.12;76.53
4012;BME280;2020;48.682;9.024;2022-08-19T04:35:55;96027.47;;;18.08;76.86
4012;BME280;2020;48.682;9.024;2022-08-19T04:38:23;96024.09;;;18.01;77.60
4012;BME280;2020;48.682;9.024;2022-08-19T04:40:51;96036.88;;;17.91;77.95
4012;BME280;2020;48.682;9.024;2022-08-19T04:43:37;96037.25;;;18.01;77.72
4012;BME280;2020;48.682;9.024;2022-08-19T04:46:10;96035.66;;;18.00;77.59
4012;BME280;2020;48.682;9.024;2022-08-19T04:48:37;96029.16;;;17.96;77.90
4012;BME280;2020;48.682;9.024;2022-08-19T04:51:07;96031.78;;;17.96;77.89
4012;BME280;2020;48.682;9.024;2022-08-19T04:53:35;96030.78;;;17.97;78.17
4012;BME280;2020;48.682;9.024;2022-08-19T04:56:06;96042.69;;;18.00;77.76
4012;BME280;2020;48.682;9.024;2022-08-19T04:58:33;96038.88;;;18.02;77.93
4012;BME280;2020;48.682;9.024;2022-08-19T05:00:59;96040.69;;;18.02;77.82
4012;BME280;2020;48.682;9.024;2022-08-19T05:03:27;96037.25;;;18.01;77.78
4012;BME280;2020;48.682;9.024;2022-08-19T05:06:08;96034.84;;;17.93;78.24
4012;BME280;2020;48.682;9.024;2022-08-19T05:08:36;96041.72;;;17.94;78.27
4012;BME280;2020;48.682;9.024;2022-08-19T05:11:06;96039.69;;;17.96;77.98
4012;BME280;2020;48.682;9.024;2022-08-19T05:13:32;96042.09;;;17.97;77.98
4012;BME280;2020;48.682;9.024;2022-08-19T05:15:58;96055.91;;;17.93;78.24
4012;BME280;2020;48.682;9.024;2022-08-19T05:18:23;96064.81;;;17.92;78.61
4012;BME280;2020;48.682;9.024;2022-08-19T05:21:08;96069.66;;;17.95;78.08
4012;BME280;2020;48.682;9.024;2022-08-19T05:23:53;96081.81;;;17.96;78.19
4012;BME280;2020;48.682;9.024;2022-08-19T05:26:19;96091.16;;;17.92;78.57
4012;BME280;2020;48.682;9.024;2022-08-19T05:28:44;96097.19;;;17.99;77.98
4012;BME280;2020;48.682;9.024;2022-08-19T05:31:09;96111.13;;;18.00;78.14
4012;BME280;2020;48.682;9.024;2022-08-19T05:33:34;96117.66;;;17.97;77.95
4012;BME280;2020;48.682;9.024;2022-08-19T05:36:01;96121.91;;;17.98;78.24
4012;BME280;2020;48.682;9.024;2022-08-19T05:38:27;96119.91;;;18.00;77.87
4012;BME280;2020;48.682;9.024;2022-08-19T05:40:55;96119.91;;;18.00;78.10
4012;BME280;2020;48.682;9.024;2022-08-19T05:43:20;96118.44;;;17.97;78.12
4012;BME280;2020;48.682;9.024;2022-08-19T05:45:45;96109.75;;;17.97;78.41
4012;BME280;2020;48.682;9.024;2022-08-19T05:48:11;96119.91;;;18.00;78.08
4012;BME280;2020;48.682;9.024;2022-08-19T05:50:41;96117.44;;;17.98;78.29
4012;BME280;2020;48.682;9.024;2022-08-19T05:53:07;96120.88;;;17.99;78.04
4012;BME280;2020;48.682;9.024;2022-08-19T05:55:34;96123.13;;;18.02;78.20
4012;BME280;2020;48.682;9.024;2022-08-19T05:57:59;96114.19;;;18.03;78.11
4012;BME280;2020;48.682;9.024;2022-08-19T06:00:26;96122.31;;;18.02;77.86
4012;BME280;2020;48.682;9.024;2022-08-19T06:02:52;96119.03;;;18.00;78.17
4012;BME280;2020;48.682;9.024;2022-08-19T06:05:17;96114.63;;;18.00;78.25
4012;BME280;2020;48.682;9.024;2022-08-19T06:07:42;96118.06;;;17.94;78.32
4012;BME280;2020;48.682;9.024;2022-08-19T06:10:10;96119.50;;;17.90;78.35
4012;BME280;2020;48.682;9.024;2022-08-19T06:12:37;96117.84;;;17.95;78.40
4012;BME280;2020;48.682;9.024;2022-08-19T06:15:06;96121.06;;;17.97;78.07
4012;BME280;2020;48.682;9.024;2022-08-19T06:17:31;96114.63;;;17.93;78.18
4012;BME280;2020;48.682;9.024;2022-08-19T06:19:59;96112.97;;;17.99;78.43
4012;BME280;2020;48.682;9.024;2022-08-19T06:22:25;96116.25;;;18.01;78.13
4012;BME280;2020;48.682;9.024;2022-08-19T06:24:51;96112.00;;;18.00;77.84
4012;BME280;2020;48.682;9.024;2022-08-19T06:27:19;96105.09;;;17.99;78.14
4012;BME280;2020;48.682;9.024;2022-08-19T06:29:45;96112.59;;;18.02;78.32
4012;BME280;2020;48.682;9.024;2022-08-19T06:32:14;96114.63;;;18.00;77.67
4012;BME280;2020;48.682;9.024;2022-08-19T06:34:40;96113.19;;;18.04;77.66
4012;BME280;2020;48.682;9.024;2022-08-19T06:37:06;96106.91;;;17.98;77.78
4012;BME280;2020;48.682;9.024;2022-08-19T06:39:36;96110.97;;;18.01;77.63
4012;BME280;2020;48.682;9.024;2022-08-19T06:42:04;96110.56;;;18.04;77.37
4012;BME280;2020;48.682;9.024;2022-08-19T06:44:34;96111.56;;;18.03;77.15
4012;BME280;2020;48.682;9.024;2022-08-19T06:47:04;96116.84;;;18.03;77.52
4012;BME280;2020;48.682;9.024;2022-08-19T06:49:29;96126.34;;;18.04;77.18
4012;BME280;2020;48.682;9.024;2022-08-19T06:51:56;96125.50;;;18.10;76.95
4012;BME280;2020;48.682;9.024;2022-08-19T06:54:22;96121.00;;;18.18;76.61
4012;BME280;2020;48.682;9.024;2022-08-19T06:56:48;96120.16;;;18.24;76.53
4012;BME280;2020;48.682;9.024;2022-08-19T06:59:17;96118.88;;;18.33;76.43
4012;BME280;2020;48.682;9.024;2022-08-19T07:01:45;96120.06;;;18.37;75.82
4012;BME280;2020;48.682;9.024;2022-08-19T07:04:13;96129.00;;;18.36;76.28
4012;BME280;2020;48.682;9.024;2022-08-19T07:06:38;96131.78;;;18.41;75.62
4012;BME280;2020;48.682;9.024;2022-08-19T07:09:04;96133.00;;;18.39;75.69
4012;BME280;2020;48.682;9.024;2022-08-19T07:11:30;96133.41;;;18.42;75.82
4012;BME280;2020;48.682;9.024;2022-08-19T07:13:56;96127.72;;;18.46;75.62
4012;BME280;2020;48.682;9.024;2022-08-19T07:16:21;96127.88;;;18.51;75.39
4012;BME280;2020;48.682;9.024;2022-08-19T07:18:50;96133.72;;;18.53;75.15
4012;BME280;2020;48.682;9.024;2022-08-19T07:21:19;96133.31;;;18.56;75.16
4012;BME280;2020;48.682;9.024;2022-08-19T07:23:45;96134.06;;;18.63;75.11
4012;BME280;2020;48.682;9.024;2022-08-19T07:28:39;96137.19;;;18.79;74.26
4012;BME280;2020;48.682;9.024;2022-08-19T07:31:06;96136.00;;;18.75;74.29
4012;BME280;2020;48.682;9.024;2022-08-19T07:33:33;96138.38;;;18.83;74.17
4012;BME280;2020;48.682;9.024;2022-08-19T07:36:00;96140.09;;;18.70;74.20
4012;BME280;2020;48.682;9.024;2022-08-19T07:38:26;96142.94;;;18.69;74.77
4012;BME280;2020;48.682;9.024;2022-08-19T07:40:51;96145.00;;;18.67;75.55
4012;BME280;2020;48.682;9.024;2022-08-19T07:43:16;96142.56;;;18.65;75.58
4012;BME280;2020;48.682;9.024;2022-08-19T07:45:54;96146.66;;;18.61;75.38
4012;BME280;2020;48.682;9.024;2022-08-19T07:48:26;96149.44;;;18.66;75.44
4012;BME280;2020;48.682;9.024;2022-08-19T07:50:57;96146.81;;;18.66;75.62
4012;BME280;2020;48.682;9.024;2022-08-19T07:53:24;96145.78;;;18.67;75.15
4012;BME280;2020;48.682;9.024;2022-08-19T07:55:50;96141.69;;;18.71;75.39
4012;BME280;2020;48.682;9.024;2022-08-19T07:58:18;96135.25;;;18.67;74.94
4012;BME280;2020;48.682;9.024;2022-08-19T08:00:46;96140.16;;;18.64;75.25
4012;BME280;2020;48.682;9.024;2022-08-19T08:03:13;96135.69;;;18.64;75.10
4012;BME280;2020;48.682;9.024;2022-08-19T08:05:38;96132.28;;;18.57;75.47
4012;BME280;2020;48.682;9.024;2022-08-19T08:08:22;96138.16;;;18.59;76.18
4012;BME280;2020;48.682;9.024;2022-08-19T08:11:06;96132.13;;;18.52;77.16
4012;BME280;2020;48.682;9.024;2022-08-19T08:13:32;96138.41;;;18.51;77.46
4012;BME280;2020;48.682;9.024;2022-08-19T08:16:00;96153.19;;;18.52;77.66
4012;BME280;2020;48.682;9.024;2022-08-19T08:18:26;96155.22;;;18.56;77.31
4012;BME280;2020;48.682;9.024;2022-08-19T08:20:52;96150.56;;;18.52;78.30
4012;BME280;2020;48.682;9.024;2022-08-19T08:23:17;96147.16;;;18.45;79.50
4012;BME280;2020;48.682;9.024;2022-08-19T08:25:52;96149.22;;;18.42;78.61
4012;BME280;2020;48.682;9.024;2022-08-19T08:28:18;96149.81;;;18.45;78.72
4012;BME280;2020;48.682;9.024;2022-08-19T08:30:45;96154.47;;;18.42;78.79
4012;BME280;2020;48.682;9.024;2022-08-19T08:33:13;96155.69;;;18.40;78.37
4012;BME280;2020;48.682;9.024;2022-08-19T08:35:39;96156.94;;;18.37;78.31
4012;BME280;2020;48.682;9.024;2022-08-19T08:38:06;96151.84;;;18.42;78.17
4012;BME280;2020;48.682;9.024;2022-08-19T08:43:11;96158.34;;;18.40;78.11
4012;BME280;2020;48.682;9.024;2022-08-19T08:45:47;96156.94;;;18.37;78.18
4012;BME280;2020;48.682;9.024;2022-08-19T08:48:20;96152.09;;;18.34;78.29
4012;BME280;2020;48.682;9.024;2022-08-19T08:50:49;96152.09;;;18.34;78.33
4012;BME280;2020;48.682;9.024;2022-08-19T08:53:19;96158.56;;;18.38;78.55
4012;BME280;2020;48.682;9.024;2022-08-19T08:55:45;96161.78;;;18.40;78.63
4012;BME280;2020;48.682;9.024;2022-08-19T08:58:14;96156.53;;;18.40;77.97
4012;BME280;2020;48.682;9.024;2022-08-19T09:00:45;96157.28;;;18.48;78.39
4012;BME280;2020;48.682;9.024;2022-08-19T09:03:29;96158.03;;;18.55;77.34
4012;BME280;2020;48.682;9.024;2022-08-19T09:11:00;96166.44;;;18.70;76.19
4012;BME280;2020;48.682;9.024;2022-08-19T09:16:12;96165.59;;;18.77;75.80
4012;BME280;2020;48.682;9.024;2022-08-19T09:18:45;96166.34;;;18.84;75.59
4012;BME280;2020;48.682;9.024;2022-08-19T09:21:12;96169.13;;;18.89;75.20
4012;BME280;2020;48.682;9.024;2022-08-19T09:23:38;96169.88;;;18.96;75.30
4012;BME280;2020;48.682;9.024;2022-08-19T09:26:12;96167.88;;;18.98;75.26
4012;BME280;2020;48.682;9.024;2022-08-19T09:28:42;96173.53;;;18.95;74.49
4012;BME280;2020;48.682;9.024;2022-08-19T09:31:29;96176.63;;;18.92;74.81
4012;BME280;2020;48.682;9.024;2022-08-19T09:33:55;96175.00;;;18.91;75.14
4012;BME280;2020;48.682;9.024;2022-08-19T09:36:25;96166.66;;;18.94;74.88
4012;BME280;2020;48.682;9.024;2022-08-19T09:38:52;96171.53;;;18.97;74.95
4012;BME280;2020;48.682;9.024;2022-08-19T09:41:20;96174.31;;;19.03;74.77
4012;BME280;2020;48.682;9.024;2022-08-19T09:43:49;96173.31;;;19.04;75.04
4012;BME280;2020;48.682;9.024;2022-08-19T09:46:18;96170.66;;;19.04;74.61
4012;BME280;2020;48.682;9.024;2022-08-19T09:48:47;96177.56;;;19.05;74.61
4012;BME280;2020;48.682;9.024;2022-08-19T09:51:17;96181.59;;;19.07;74.17
4012;BME280;2020;48.682;9.024;2022-08-19T09:53:47;96182.81;;;19.05;73.77
4012;BME280;2020;48.682;9.024;2022-08-19T09:56:15;96186.06;;;19.07;74.12
4012;BME280;2020;48.682;9.024;2022-08-19T09:58:41;96180.34;;;19.10;73.86
4012;BME280;2020;48.682;9.024;2022-08-19T10:01:07;96186.00;;;19.13;73.52
4012;BME280;2020;48.682;9.024;2022-08-19T10:03:33;96189.59;;;19.19;73.47
4012;BME280;2020;48.682;9.024;2022-08-19T10:06:01;96189.00;;;19.17;73.40
4012;BME280;2020;48.682;9.024;2022-08-19T10:08:30;96187.56;;;19.21;73.31
4012;BME280;2020;48.682;9.024;2022-08-19T10:10:56;96189.19;;;19.22;73.49
4012;BME280;2020;48.682;9.024;2022-08-19T10:13:24;96190.81;;;19.23;72.99
4012;BME280;2020;48.682;9.024;2022-08-19T10:15:52;96183.47;;;19.25;73.18
4012;BME280;2020;48.682;9.024;2022-08-19T10:18:20;96191.56;;;19.31;72.94
4012;BME280;2020;48.682;9.024;2022-08-19T10:20:48;96196.44;;;19.27;72.99
4012;BME280;2020;48.682;9.024;2022-08-19T10:23:13;96192.72;;;19.35;72.73
4012;BME280;2020;48.682;9.024;2022-08-19T10:25:40;96190.09;;;19.35;72.61
4012;BME280;2020;48.682;9.024;2022-08-19T10:28:06;96193.31;;;19.37;72.17
4012;BME280;2020;48.682;9.024;2022-08-19T10:30:32;96186.59;;;19.41;72.08
4012;BME280;2020;48.682;9.024;2022-08-19T10:32:57;96184.38;;;19.38;72.08
4012;BME280;2020;48.682;9.024;2022-08-19T10:35:23;96184.53;;;19.43;72.19
4012;BME280;2020;48.682;9.024;2022-08-19T10:37:49;96186.13;;;19.44;71.88
4012;BME280;2020;48.682;9.024;2022-08-19T10:40:15;96181.66;;;19.44;71.94
4012;BME280;2020;48.682;9.024;2022-08-19T10:42:40;96176.75;;;19.48;70.89
4012;BME280;2020;48.682;9.024;2022-08-19T10:45:06;96179.41;;;19.48;70.33
4012;BME280;2020;48.682;9.024;2022-08-19T10:47:32;96169.44;;;19.50;70.11
4012;BME280;2020;48.682;9.024;2022-08-19T10:49:58;96165.69;;;19.58;69.95
4012;BME280;2020;48.682;9.024;2022-08-19T10:52:47;96171.34;;;19.62;69.46
4012;BME280;2020;48.682;9.024;2022-08-19T10:55:13;96167.66;;;19.63;69.33
4012;BME280;2020;48.682;9.024;2022-08-19T10:57:57;96172.06;;;19.69;69.41
4012;BME280;2020;48.682;9.024;2022-08-19T11:00:23;96161.06;;;19.72;68.95
4012;BME280;2020;48.682;9.024;2022-08-19T11:02:50;96161.78;;;19.79;68.56
4012;BME280;2020;48.682;9.024;2022-08-19T11:05:16;96168.81;;;19.85;68.50
4012;BME280;2020;48.682;9.024;2022-08-19T11:07:43;96175.44;;;19.95;67.89
4012;BME280;2020;48.682;9.024;2022-08-19T11:10:11;96169.72;;;19.98;67.74
4012;BME280;2020;48.682;9.024;2022-08-19T11:12:37;96164.13;;;20.06;67.23
4012;BME280;2020;48.682;9.024;2022-08-19T11:15:05;96158.19;;;20.11;66.75
4012;BME280;2020;48.682;9.024;2022-08-19T11:17:31;96155.31;;;20.12;66.74
4012;BME280;2020;48.682;9.024;2022-08-19T11:19:56;96161.75;;;20.16;66.77
4012;BME280;2020;48.682;9.024;2022-08-19T11:22:22;96160.88;;;20.23;66.41
4012;BME280;2020;48.682;9.024;2022-08-19T11:24:47;96158.22;;;20.23;66.18
4012;BME280;2020;48.682;9.024;2022-08-19T11:27:12;96155.94;;;20.26;66.37
4012;BME280;2020;48.682;9.024;2022-08-19T11:29:38;96158.34;;;20.28;65.60
4012;BME280;2020;48.682;9.024;2022-08-19T11:32:09;96160.41;;;20.26;65.47
4012;BME280;2020;48.682;9.024;2022-08-19T11:34:35;96168.34;;;20.26;65.75
4012;BME280;2020;48.682;9.024;2022-08-19T11:37:01;96161.00;;;20.28;65.45
4012;BME280;2020;48.682;9.024;2022-08-19T11:39:30;96169.06;;;20.33;65.35
4012;BME280;2020;48.682;9.024;2022-08-19T11:41:58;96171.47;;;20.35;65.64
4012;BME280;2020;48.682;9.024;2022-08-19T11:44:23;96167.13;;;20.40;65.36
4012;BME280;2020;48.682;9.024;2022-08-19T11:46:49;96170.34;;;20.42;65.03
4012;BME280;2020;48.682;9.024;2022-08-19T11:49:16;96159.31;;;20.45;64.59
4012;BME280;2020;48.682;9.024;2022-08-19T11:51:44;96168.66;;;20.48;64.67
4012;BME280;2020;48.682;9.024;2022-08-19T11:54:10;96163.56;;;20.46;63.90
4012;BME280;2020;48.682;9.024;2022-08-19T11:56:37;96165.75;;;20.50;63.80
4012;BME280;2020;48.682;9.024;2022-08-19T11:59:02;96166.13;;;20.53;63.49
4012;BME280;2020;48.682;9.024;2022-08-19T12:01:28;96162.00;;;20.57;63.34
4012;BME280;2020;48.682;9.024;2022-08-19T12:03:55;96156.06;;;20.62;62.94
4012;BME280;2020;48.682;9.024;2022-08-19T12:06:24;96154.00;;;20.64;62.96
4012;BME280;2020;48.682;9.024;2022-08-19T12:08:54;96154.13;;;20.69;62.57
4012;BME280;2020;48.682;9.024;2022-08-19T12:11:20;96155.59;;;20.77;62.76
4012;BME280;2020;48.682;9.024;2022-08-19T12:13:45;96143.81;;;20.80;62.26
4012;BME280;2020;48.682;9.024;2022-08-19T12:16:15;96153.09;;;20.82;62.20
4012;BME280;2020;48.682;9.024;2022-08-19T12:18:42;96155.09;;;20.87;61.98
4012;BME280;2020;48.682;9.024;2022-08-19T12:21:18;96153.34;;;20.93;61.35
4012;BME280;2020;48.682;9.024;2022-08-19T12:23:46;96153.25;;;20.99;61.07
4012;BME280;2020;48.682;9.024;2022-08-19T12:26:11;96156.00;;;21.04;61.02
4012;BME280;2020;48.682;9.024;2022-08-19T12:28:38;96156.25;;;21.15;60.51
4012;BME280;2020;48.682;9.024;2022-08-19T12:31:03;96155.78;;;21.18;60.44
4012;BME280;2020;48.682;9.024;2022-08-19T12:33:29;96149.56;;;21.24;59.57
4012;BME280;2020;48.682;9.024;2022-08-19T12:35:55;96152.56;;;21.28;59.41
4012;BME280;2020;48.682;9.024;2022-08-19T12:38:24;96151.38;;;21.36;60.08
4012;BME280;2020;48.682;9.024;2022-08-19T12:40:50;96154.16;;;21.41;59.70
4012;BME280;2020;48.682;9.024;2022-08-19T12:43:17;96154.16;;;21.41;58.97
4012;BME280;2020;48.682;9.024;2022-08-19T12:45:43;96150.56;;;21.47;57.79
4012;BME280;2020;48.682;9.024;2022-08-19T12:48:10;96136.88;;;21.50;58.24
4012;BME280;2020;48.682;9.024;2022-08-19T12:50:35;96145.38;;;21.52;58.08
4012;BME280;2020;48.682;9.024;2022-08-19T12:53:00;96144.13;;;21.55;56.67
4012;BME280;2020;48.682;9.024;2022-08-19T12:55:26;96145.38;;;21.52;57.50
4012;BME280;2020;48.682;9.024;2022-08-19T12:57:53;96145.84;;;21.49;57.52
4012;BME280;2020;48.682;9.024;2022-08-19T13:00:20;96140.56;;;21.49;57.39
4012;BME280;2020;48.682;9.024;2022-08-19T13:02:47;96147.47;;;21.50;56.52
4012;BME280;2020;48.682;9.024;2022-08-19T13:05:17;96140.09;;;21.52;57.08
4012;BME280;2020;48.682;9.024;2022-08-19T13:07:45;96151.59;;;21.58;55.66
4012;BME280;2020;48.682;9.024;2022-08-19T13:10:12;96144.44;;;21.58;55.85
4012;BME280;2020;48.682;9.024;2022-08-19T13:12:40;96151.34;;;21.59;54.92
4012;BME280;2020;48.682;9.024;2022-08-19T13:15:06;96152.97;;;21.60;54.67
4012;BME280;2020;48.682;9.024;2022-08-19T13:17:33;96150.44;;;21.66;54.33
4012;BME280;2020;48.682;9.024;2022-08-19T13:19:58;96149.97;;;21.69;54.04
4012;BME280;2020;48.682;9.024;2022-08-19T13:22:24;96161.59;;;21.80;53.60
4012;BME280;2020;48.682;9.024;2022-08-19T13:24:49;96154.53;;;21.85;53.81
4012;BME280;2020;48.682;9.024;2022-08-19T13:27:15;96155.25;;;21.93;53.50
4012;BME280;2020;48.682;9.024;2022-08-19T13:29:41;96150.25;;;21.96;52.76
4012;BME280;2020;48.682;9.024;2022-08-19T13:32:25;96153.81;;;22.02;53.00
4012;BME280;2020;48.682;9.024;2022-08-19T13:35:09;96152.78;;;22.03;53.21
4012;BME280;2020;48.682;9.024;2022-08-19T13:37:34;96154.88;;;22.01;52.94
4012;BME280;2020;48.682;9.024;2022-08-19T13:40:19;96156.56;;;22.07;51.95